createdAt,value
2019-01-22T00:00:17.896Z,1.41
2019-01-22T00:01:28.016Z,1.41
2019-01-22T00:02:38.159Z,1.4
2019-01-22T00:03:48.498Z,1.44
2019-01-22T00:04:59.094Z,1.42
2019-01-22T00:06:09.062Z,1.34
2019-01-22T00:07:19.630Z,1.42
2019-01-22T00:08:29.235Z,1.34
2019-01-22T00:09:38.896Z,1.37
2019-01-22T00:10:48.381Z,1.34
2019-01-22T00:11:58.113Z,1.24
2019-01-22T00:13:07.591Z,1.24
2019-01-22T00:14:17.581Z,1.27
2019-01-22T00:15:27.561Z,1.4
2019-01-22T00:16:37.273Z,1.4
2019-01-22T00:17:46.254Z,1.36
2019-01-22T00:18:55.517Z,1.41
2019-01-22T00:20:05.294Z,1.4
2019-01-22T00:21:15.295Z,1.5
2019-01-22T00:22:25.031Z,1.51
2019-01-22T00:23:34.768Z,1.4
2019-01-22T00:24:44.506Z,1.37
2019-01-22T00:25:54.492Z,1.4
2019-01-22T00:27:04.196Z,1.34
2019-01-22T00:28:14.179Z,1.41
2019-01-22T00:29:24.153Z,1.5
2019-01-22T00:30:33.864Z,1.48
2019-01-22T00:31:43.110Z,1.48
2019-01-22T00:32:52.592Z,1.55
2019-01-22T00:34:02.574Z,1.5
2019-01-22T00:35:12.296Z,1.62
2019-01-22T00:36:22.028Z,1.5
2019-01-22T00:37:31.796Z,1.47
2019-01-22T00:38:40.779Z,1.5
2019-01-22T00:39:50.763Z,1.45
2019-01-22T00:41:00.240Z,1.44
2019-01-22T00:42:09.702Z,1.48
2019-01-22T00:43:19.436Z,1.51
2019-01-22T00:44:29.148Z,1.48
2019-01-22T00:45:39.145Z,1.42
2019-01-22T00:46:48.866Z,1.44
2019-01-22T00:47:58.593Z,1.37
2019-01-22T00:49:08.071Z,1.54
2019-01-22T00:50:17.801Z,1.52
2019-01-22T00:51:27.528Z,1.55
2019-01-22T00:52:36.758Z,1.51
2019-01-22T00:53:46.728Z,1.55
2019-01-22T00:54:56.754Z,1.51
2019-01-22T00:56:07.067Z,1.6
2019-01-22T00:57:17.231Z,1.55
2019-01-22T00:58:27.512Z,1.54
2019-01-22T00:59:38.162Z,1.65
2019-01-22T01:00:48.223Z,1.58
2019-01-22T01:01:58.400Z,1.62
2019-01-22T01:03:07.852Z,1.68
2019-01-22T01:04:17.340Z,1.59
2019-01-22T01:05:27.347Z,1.73
2019-01-22T01:06:36.824Z,1.65
2019-01-22T01:07:46.295Z,1.65
2019-01-22T01:08:56.003Z,1.68
2019-01-22T01:10:05.230Z,1.6
2019-01-22T01:11:14.962Z,1.62
2019-01-22T01:12:24.936Z,1.66
2019-01-22T01:13:34.410Z,1.58
2019-01-22T01:14:43.871Z,1.55
2019-01-22T01:15:53.837Z,1.54
2019-01-22T01:17:03.341Z,1.58
2019-01-22T01:18:12.801Z,1.55
2019-01-22T01:19:22.774Z,1.58
2019-01-22T01:20:32.253Z,1.58
2019-01-22T01:21:41.967Z,1.55
2019-01-22T01:22:51.715Z,1.69
2019-01-22T01:24:01.194Z,1.62
2019-01-22T01:25:10.913Z,1.63
2019-01-22T01:26:20.397Z,1.65
2019-01-22T01:27:29.622Z,1.6
2019-01-22T01:28:39.335Z,1.58
2019-01-22T01:29:49.061Z,1.66
2019-01-22T01:30:58.785Z,1.6
2019-01-22T01:32:08.504Z,1.62
2019-01-22T01:33:18.474Z,1.73
2019-01-22T01:34:27.945Z,1.65
2019-01-22T01:35:37.469Z,1.7
2019-01-22T01:36:46.686Z,1.66
2019-01-22T01:37:56.147Z,1.72
2019-01-22T01:39:06.139Z,1.73
2019-01-22T01:40:15.382Z,1.7
2019-01-22T01:41:25.371Z,1.77
2019-01-22T01:42:34.851Z,1.72
2019-01-22T01:43:44.335Z,1.72
2019-01-22T01:44:53.557Z,1.63
2019-01-22T01:46:03.047Z,1.69
2019-01-22T01:47:12.541Z,1.69
2019-01-22T01:48:22.025Z,1.65
2019-01-22T01:49:31.514Z,1.62
2019-01-22T01:50:40.751Z,1.76
2019-01-22T01:51:50.495Z,1.65
2019-01-22T01:52:59.718Z,1.69
2019-01-22T01:54:09.445Z,1.62
2019-01-22T01:55:19.424Z,1.65
2019-01-22T01:56:28.914Z,1.62
2019-01-22T01:57:38.876Z,1.55
2019-01-22T01:58:48.342Z,1.68
2019-01-22T01:59:58.204Z,1.62
2019-01-22T02:01:08.560Z,1.63
2019-01-22T02:02:18.492Z,1.62
2019-01-22T02:03:29.484Z,1.68
2019-01-22T02:04:39.884Z,1.55
2019-01-22T02:05:50.550Z,1.68
2019-01-22T02:07:00.605Z,1.72
2019-01-22T02:08:10.519Z,1.59
2019-01-22T02:09:20.067Z,1.73
2019-01-22T02:10:29.309Z,1.66
2019-01-22T02:11:38.551Z,1.72
2019-01-22T02:12:48.523Z,1.62
2019-01-22T02:13:58.494Z,1.66
2019-01-22T02:15:08.218Z,1.59
2019-01-22T02:16:17.972Z,1.59
2019-01-22T02:17:27.963Z,1.55
2019-01-22T02:18:37.430Z,1.68
2019-01-22T02:19:47.428Z,1.63
2019-01-22T02:20:57.157Z,1.68
2019-01-22T02:22:06.637Z,1.62
2019-01-22T02:23:16.631Z,1.7
2019-01-22T02:24:26.336Z,1.76
2019-01-22T02:25:36.056Z,1.65
2019-01-22T02:26:45.549Z,1.66
2019-01-22T02:27:55.043Z,1.65
2019-01-22T02:29:04.510Z,1.59
2019-01-22T02:30:14.250Z,1.55
2019-01-22T02:31:23.995Z,1.6
2019-01-22T02:32:33.978Z,1.62
2019-01-22T02:33:43.701Z,1.69
2019-01-22T02:34:53.410Z,1.73
2019-01-22T02:36:02.895Z,1.76
2019-01-22T02:37:12.864Z,1.66
2019-01-22T02:38:22.845Z,1.73
2019-01-22T02:39:32.575Z,1.63
2019-01-22T02:40:42.297Z,1.66
2019-01-22T02:41:52.265Z,1.68
2019-01-22T02:43:02.264Z,1.73
2019-01-22T02:44:11.997Z,1.76
2019-01-22T02:45:21.727Z,1.55
2019-01-22T02:46:31.766Z,1.6
2019-01-22T02:47:41.493Z,1.52
2019-01-22T02:48:50.955Z,1.58
2019-01-22T02:50:00.740Z,1.54
2019-01-22T02:51:10.862Z,1.68
2019-01-22T02:52:21.739Z,1.59
2019-01-22T02:53:38.511Z,1.6
2019-01-22T02:54:48.478Z,1.54
2019-01-22T02:55:58.455Z,1.59
2019-01-22T02:57:08.221Z,1.54
2019-01-22T02:58:17.940Z,1.68
2019-01-22T02:59:27.927Z,1.6
2019-01-22T03:00:37.400Z,1.79
2019-01-22T03:01:46.889Z,1.72
2019-01-22T03:02:56.874Z,1.66
2019-01-22T03:04:06.637Z,1.62
2019-01-22T03:05:16.372Z,1.65
2019-01-22T03:06:26.114Z,1.73
2019-01-22T03:07:36.121Z,1.55
2019-01-22T03:08:46.097Z,1.48
2019-01-22T03:09:55.571Z,1.52
2019-01-22T03:11:05.418Z,1.5
2019-01-22T03:12:14.904Z,1.55
2019-01-22T03:13:24.371Z,1.59
2019-01-22T03:14:34.103Z,1.6
2019-01-22T03:15:44.130Z,1.54
2019-01-22T03:16:53.376Z,1.7
2019-01-22T03:18:03.372Z,1.69
2019-01-22T03:19:13.346Z,1.62
2019-01-22T03:20:23.091Z,1.55
2019-01-22T03:21:33.075Z,1.58
2019-01-22T03:22:42.830Z,1.45
2019-01-22T03:23:52.315Z,1.4
2019-01-22T03:25:02.072Z,1.47
2019-01-22T03:26:11.805Z,1.41
2019-01-22T03:27:21.770Z,1.32
2019-01-22T03:28:31.767Z,1.42
2019-01-22T03:29:41.253Z,1.34
2019-01-22T03:30:51.244Z,1.41
2019-01-22T03:32:01.241Z,1.4
2019-01-22T03:33:11.537Z,1.32
2019-01-22T03:34:21.553Z,1.36
2019-01-22T03:35:31.934Z,1.29
2019-01-22T03:36:42.429Z,1.3
2019-01-22T03:37:53.173Z,1.22
2019-01-22T03:39:03.419Z,1.12
2019-01-22T03:40:13.362Z,1.04
2019-01-22T03:41:23.061Z,1.09
2019-01-22T03:42:33.000Z,1.02
2019-01-22T03:43:42.442Z,0.96
2019-01-22T03:44:52.400Z,0.93
2019-01-22T03:46:02.365Z,0.88
2019-01-22T03:47:12.315Z,0.9
2019-01-22T03:48:21.778Z,0.69
2019-01-22T03:49:31.505Z,0.7
2019-01-22T03:50:41.455Z,0.78
2019-01-22T03:51:50.897Z,0.66
2019-01-22T03:53:00.686Z,0.68
2019-01-22T03:54:10.639Z,0.66
2019-01-22T03:55:20.573Z,0.51
2019-01-22T03:56:30.275Z,0.53
2019-01-22T03:57:39.745Z,0.58
2019-01-22T03:58:49.203Z,0.62
2019-01-22T03:59:59.153Z,0.62
2019-01-22T04:01:08.864Z,0.6
2019-01-22T04:02:18.074Z,0.49
2019-01-22T04:03:27.782Z,0.49
2019-01-22T04:04:37.748Z,0.49
2019-01-22T04:05:47.045Z,0.41
2019-01-22T04:06:56.742Z,0.38
2019-01-22T04:08:06.720Z,0.31
2019-01-22T04:09:16.400Z,0.38
2019-01-22T04:10:26.362Z,0.42
2019-01-22T04:11:35.561Z,0.36
2019-01-22T04:12:45.507Z,0.36
2019-01-22T04:13:54.965Z,0.5
2019-01-22T04:15:04.737Z,0.44
2019-01-22T04:16:14.307Z,0.35
2019-01-22T04:17:24.884Z,0.35
2019-01-22T04:18:35.800Z,0.29
2019-01-22T04:19:46.133Z,0.26
2019-01-22T04:20:56.885Z,0.33
2019-01-22T04:22:07.107Z,0.2
2019-01-22T04:23:16.486Z,0.17
2019-01-22T04:24:25.944Z,0.17
2019-01-22T04:25:35.641Z,0.17
2019-01-22T04:26:45.376Z,0.08
2019-01-22T04:27:55.079Z,0.07
2019-01-22T04:29:04.772Z,0.03
2019-01-22T04:30:14.468Z,0
2019-01-22T04:31:24.177Z,-0.04
2019-01-22T04:32:34.118Z,-0.04
2019-01-22T04:33:44.078Z,-0.11
2019-01-22T04:34:53.534Z,-0.08
2019-01-22T04:36:02.982Z,-0.16
2019-01-22T04:37:12.674Z,-0.03
2019-01-22T04:38:22.133Z,-0.16
2019-01-22T04:39:32.092Z,-0.14
2019-01-22T04:40:41.539Z,-0.26
2019-01-22T04:41:50.743Z,-0.22
2019-01-22T04:43:00.443Z,-0.21
2019-01-22T04:44:09.922Z,-0.34
2019-01-22T04:45:19.696Z,-0.36
2019-01-22T04:46:29.414Z,-0.37
2019-01-22T04:47:39.367Z,-0.43
2019-01-22T04:48:49.330Z,-0.36
2019-01-22T04:49:59.079Z,-0.26
2019-01-22T04:51:08.800Z,-0.36
2019-01-22T04:52:18.520Z,-0.4
2019-01-22T04:53:27.965Z,-0.44
2019-01-22T04:54:37.924Z,-0.51
2019-01-22T04:55:47.621Z,-0.47
2019-01-22T04:56:57.572Z,-0.49
2019-01-22T04:58:07.284Z,-0.6
2019-01-22T04:59:17.554Z,-0.62
2019-01-22T05:00:29.128Z,-0.6
2019-01-22T05:01:39.561Z,-0.49
2019-01-22T05:02:49.461Z,-0.57
2019-01-22T05:03:59.723Z,-0.54
2019-01-22T05:05:09.159Z,-0.58
2019-01-22T05:06:18.643Z,-0.49
2019-01-22T05:07:28.100Z,-0.64
2019-01-22T05:08:37.817Z,-0.67
2019-01-22T05:09:47.499Z,-0.7
2019-01-22T05:10:57.442Z,-0.69
2019-01-22T05:12:07.422Z,-0.69
2019-01-22T05:13:17.118Z,-0.73
2019-01-22T05:14:27.077Z,-0.83
2019-01-22T05:15:36.765Z,-0.8
2019-01-22T05:16:46.467Z,-0.86
2019-01-22T05:17:56.155Z,-0.79
2019-01-22T05:19:05.875Z,-0.83
2019-01-22T05:20:15.586Z,-0.76
2019-01-22T05:21:25.554Z,-0.75
2019-01-22T05:22:35.269Z,-0.78
2019-01-22T05:23:45.439Z,-0.89
2019-01-22T05:24:54.884Z,-0.85
2019-01-22T05:26:04.595Z,-1.01
2019-01-22T05:27:14.546Z,-0.94
2019-01-22T05:28:24.257Z,-0.91
2019-01-22T05:29:34.213Z,-0.94
2019-01-22T05:30:43.917Z,-0.98
2019-01-22T05:31:53.620Z,-1.02
2019-01-22T05:33:03.062Z,-1.02
2019-01-22T05:34:13.030Z,-1.07
2019-01-22T05:35:22.724Z,-1.09
2019-01-22T05:36:32.167Z,-1.04
2019-01-22T05:37:41.897Z,-1.09
2019-01-22T05:38:51.850Z,-1.09
2019-01-22T05:40:01.286Z,-1.09
2019-01-22T05:41:11.079Z,-0.97
2019-01-22T05:42:20.632Z,-1.13
2019-01-22T05:43:31.203Z,-1.1
2019-01-22T05:44:42.133Z,-1.13
2019-01-22T05:45:52.541Z,-1.15
2019-01-22T05:47:03.140Z,-1.13
2019-01-22T05:48:18.205Z,-1.17
2019-01-22T05:49:28.150Z,-1.17
2019-01-22T05:50:37.865Z,-1.3
2019-01-22T05:51:47.815Z,-1.2
2019-01-22T05:52:57.515Z,-1.25
2019-01-22T05:54:07.202Z,-1.31
2019-01-22T05:55:16.635Z,-1.28
2019-01-22T05:56:26.065Z,-1.22
2019-01-22T05:57:35.489Z,-1.31
2019-01-22T05:58:45.165Z,-1.38
2019-01-22T05:59:55.137Z,-1.38
2019-01-22T06:01:04.313Z,-1.38
2019-01-22T06:02:13.503Z,-1.35
2019-01-22T06:03:23.560Z,-1.35
2019-01-22T06:04:32.979Z,-1.46
2019-01-22T06:05:42.902Z,-1.48
2019-01-22T06:06:52.830Z,-1.45
2019-01-22T06:08:02.755Z,-1.48
2019-01-22T06:09:12.179Z,-1.51
2019-01-22T06:10:21.596Z,-1.52
2019-01-22T06:11:31.270Z,-1.51
2019-01-22T06:12:40.936Z,-1.51
2019-01-22T06:13:50.860Z,-1.58
2019-01-22T06:15:00.379Z,-1.59
2019-01-22T06:16:10.319Z,-1.62
2019-01-22T06:17:19.495Z,-1.56
2019-01-22T06:18:29.174Z,-1.59
2019-01-22T06:19:38.655Z,-1.59
2019-01-22T06:20:48.329Z,-1.64
2019-01-22T06:21:57.761Z,-1.62
2019-01-22T06:23:07.717Z,-1.61
2019-01-22T06:24:17.649Z,-1.64
2019-01-22T06:25:27.087Z,-1.64
2019-01-22T06:26:36.773Z,-1.61
2019-01-22T06:27:46.448Z,-1.56
2019-01-22T06:28:56.362Z,-1.62
2019-01-22T06:30:05.787Z,-1.62
2019-01-22T06:31:15.205Z,-1.59
2019-01-22T06:32:25.123Z,-1.61
2019-01-22T06:33:34.547Z,-1.69
2019-01-22T06:34:44.483Z,-1.64
2019-01-22T06:35:54.423Z,-1.61
2019-01-22T06:37:04.097Z,-1.61
2019-01-22T06:38:14.026Z,-1.62
2019-01-22T06:39:23.695Z,-1.62
2019-01-22T06:40:33.362Z,-1.62
2019-01-22T06:41:43.034Z,-1.59
2019-01-22T06:42:52.963Z,-1.61
2019-01-22T06:44:02.641Z,-1.69
2019-01-22T06:45:12.322Z,-1.74
2019-01-22T06:46:23.110Z,-1.72
2019-01-22T06:47:32.783Z,-1.67
2019-01-22T06:48:42.204Z,-1.77
2019-01-22T06:49:51.888Z,-1.73
2019-01-22T06:51:01.302Z,-1.73
2019-01-22T06:52:11.225Z,-1.72
2019-01-22T06:53:20.944Z,-1.74
2019-01-22T06:54:30.619Z,-1.79
2019-01-22T06:55:47.163Z,-1.69
2019-01-22T06:56:57.097Z,-1.8
2019-01-22T06:58:06.775Z,-1.85
2019-01-22T06:59:16.446Z,-1.77
2019-01-22T07:00:26.398Z,-1.82
2019-01-22T07:01:35.830Z,-1.8
2019-01-22T07:02:45.497Z,-1.77
2019-01-22T07:03:55.169Z,-1.82
2019-01-22T07:05:04.989Z,-1.84
2019-01-22T07:06:14.694Z,-1.94
2019-01-22T07:07:23.868Z,-1.88
2019-01-22T07:08:33.789Z,-2.03
2019-01-22T07:09:43.712Z,-1.88
2019-01-22T07:10:53.145Z,-1.88
2019-01-22T07:12:02.821Z,-1.88
2019-01-22T07:13:12.744Z,-1.92
2019-01-22T07:14:22.423Z,-1.9
2019-01-22T07:15:32.350Z,-1.92
2019-01-22T07:16:42.016Z,-1.97
2019-01-22T07:17:51.689Z,-1.94
2019-01-22T07:19:01.661Z,-1.95
2019-01-22T07:20:10.830Z,-1.91
2019-01-22T07:21:20.260Z,-1.97
2019-01-22T07:22:29.927Z,-1.91
2019-01-22T07:23:39.341Z,-1.91
2019-01-22T07:24:51.717Z,-1.92
2019-01-22T07:26:01.134Z,-2
2019-01-22T07:27:11.052Z,-2.09
2019-01-22T07:28:20.974Z,-2.09
2019-01-22T07:29:30.899Z,-1.98
2019-01-22T07:30:40.824Z,-2.1
2019-01-22T07:31:50.240Z,-2.12
2019-01-22T07:32:59.409Z,-1.97
2019-01-22T07:34:08.576Z,-1.94
2019-01-22T07:35:18.250Z,-2.03
2019-01-22T07:36:27.918Z,-2.08
2019-01-22T07:37:37.592Z,-2.06
2019-01-22T07:38:47.308Z,-2.08
2019-01-22T07:39:56.974Z,-2.06
2019-01-22T07:41:06.896Z,-2.12
2019-01-22T07:42:16.317Z,-2.03
2019-01-22T07:43:25.736Z,-2
2019-01-22T07:44:35.660Z,-1.95
2019-01-22T07:45:45.082Z,-2.03
2019-01-22T07:46:54.745Z,-2.02
2019-01-22T07:48:04.415Z,-1.97
2019-01-22T07:49:13.838Z,-2.02
2019-01-22T07:50:23.762Z,-2.03
2019-01-22T07:51:33.432Z,-2.03
2019-01-22T07:52:42.848Z,-2.02
2019-01-22T07:53:52.532Z,-1.97
2019-01-22T07:55:02.191Z,-2.03
2019-01-22T07:56:11.869Z,-2.05
2019-01-22T07:57:21.537Z,-2.03
2019-01-22T07:58:31.455Z,-1.97
2019-01-22T07:59:41.387Z,-1.94
2019-01-22T08:00:50.814Z,-2
2019-01-22T08:02:00.491Z,-1.91
2019-01-22T08:03:09.909Z,-1.94
2019-01-22T08:04:19.574Z,-1.95
2019-01-22T08:05:29.237Z,-2
2019-01-22T08:06:38.912Z,-1.94
2019-01-22T08:07:48.831Z,-1.88
2019-01-22T08:08:58.794Z,-1.85
2019-01-22T08:10:08.215Z,-2
2019-01-22T08:11:17.888Z,-1.97
2019-01-22T08:12:27.810Z,-1.98
2019-01-22T08:13:37.485Z,-1.92
2019-01-22T08:14:47.150Z,-1.97
2019-01-22T08:15:56.819Z,-1.94
2019-01-22T08:17:06.538Z,-1.9
2019-01-22T08:18:15.961Z,-1.97
2019-01-22T08:19:25.894Z,-1.98
2019-01-22T08:20:35.809Z,-1.9
2019-01-22T08:21:45.491Z,-2
2019-01-22T08:22:54.942Z,-1.94
2019-01-22T08:24:04.610Z,-1.88
2019-01-22T08:25:14.532Z,-1.9
2019-01-22T08:26:23.944Z,-1.85
2019-01-22T08:27:35.947Z,-1.97
2019-01-22T08:28:45.377Z,-1.97
2019-01-22T08:29:55.045Z,-1.92
2019-01-22T08:31:04.461Z,-1.95
2019-01-22T08:32:14.140Z,-1.9
2019-01-22T08:33:23.813Z,-1.98
2019-01-22T08:34:33.235Z,-1.85
2019-01-22T08:35:42.909Z,-1.88
2019-01-22T08:36:52.832Z,-1.91
2019-01-22T08:38:02.498Z,-1.84
2019-01-22T08:39:11.671Z,-1.8
2019-01-22T08:40:21.609Z,-1.74
2019-01-22T08:41:31.566Z,-1.88
2019-01-22T08:42:41.493Z,-1.82
2019-01-22T08:43:50.912Z,-1.87
2019-01-22T08:45:00.341Z,-1.85
2019-01-22T08:46:10.264Z,-1.8
2019-01-22T08:47:19.932Z,-1.82
2019-01-22T08:48:29.595Z,-1.79
2019-01-22T08:49:38.765Z,-1.67
2019-01-22T08:50:48.441Z,-1.77
2019-01-22T08:51:58.125Z,-1.66
2019-01-22T08:53:08.099Z,-1.72
2019-01-22T08:54:17.522Z,-1.74
2019-01-22T08:55:27.186Z,-1.61
2019-01-22T08:56:36.856Z,-1.66
2019-01-22T08:57:46.778Z,-1.59
2019-01-22T08:58:56.452Z,-1.64
2019-01-22T09:00:06.143Z,-1.59
2019-01-22T09:01:16.074Z,-1.62
2019-01-22T09:02:25.026Z,-1.64
2019-01-22T09:03:34.948Z,-1.59
2019-01-22T09:04:44.873Z,-1.64
2019-01-22T09:05:54.814Z,-1.58
2019-01-22T09:07:04.733Z,-1.54
2019-01-22T09:08:14.770Z,-1.59
2019-01-22T09:09:24.443Z,-1.52
2019-01-22T09:10:34.118Z,-1.48
2019-01-22T09:11:43.538Z,-1.56
2019-01-22T09:12:53.203Z,-1.51
2019-01-22T09:14:02.873Z,-1.45
2019-01-22T09:15:12.795Z,-1.46
2019-01-22T09:16:22.210Z,-1.45
2019-01-22T09:17:31.876Z,-1.49
2019-01-22T09:18:42.873Z,-1.49
2019-01-22T09:19:52.546Z,-1.51
2019-01-22T09:21:02.214Z,-1.4
2019-01-22T09:22:11.884Z,-1.45
2019-01-22T09:23:22.734Z,-1.4
2019-01-22T09:24:32.155Z,-1.4
2019-01-22T09:25:41.823Z,-1.41
2019-01-22T09:26:51.492Z,-1.45
2019-01-22T09:28:01.415Z,-1.43
2019-01-22T09:29:11.090Z,-1.35
2019-01-22T09:30:21.068Z,-1.35
2019-01-22T09:31:30.244Z,-1.37
2019-01-22T09:32:39.664Z,-1.38
2019-01-22T09:33:49.762Z,-1.34
2019-01-22T09:34:59.455Z,-1.35
2019-01-22T09:36:09.397Z,-1.34
2019-01-22T09:37:18.815Z,-1.45
2019-01-22T09:38:28.486Z,-1.4
2019-01-22T09:39:38.161Z,-1.33
2019-01-22T09:40:47.830Z,-1.33
2019-01-22T09:41:57.257Z,-1.3
2019-01-22T09:43:06.702Z,-1.23
2019-01-22T09:44:16.616Z,-1.34
2019-01-22T09:45:26.040Z,-1.28
2019-01-22T09:46:35.705Z,-1.31
2019-01-22T09:47:45.377Z,-1.27
2019-01-22T09:48:54.554Z,-1.27
2019-01-22T09:50:04.494Z,-1.33
2019-01-22T09:51:14.418Z,-1.19
2019-01-22T09:52:24.341Z,-1.17
2019-01-22T09:53:34.263Z,-1.19
2019-01-22T09:54:43.928Z,-1.1
2019-01-22T09:56:00.291Z,-1.12
2019-01-22T09:57:10.204Z,-1.04
2019-01-22T09:58:19.868Z,-0.99
2019-01-22T09:59:29.333Z,-1.07
2019-01-22T10:00:39.004Z,-0.97
2019-01-22T10:01:48.676Z,-0.95
2019-01-22T10:02:58.591Z,-0.94
2019-01-22T10:04:08.641Z,-0.97
2019-01-22T10:05:18.313Z,-0.92
2019-01-22T10:06:28.582Z,-0.91
2019-01-22T10:07:38.257Z,-0.99
2019-01-22T10:08:47.941Z,-0.92
2019-01-22T10:09:57.660Z,-0.78
2019-01-22T10:11:07.584Z,-0.85
2019-01-22T10:12:17.506Z,-0.82
2019-01-22T10:13:26.928Z,-0.79
2019-01-22T10:14:36.099Z,-0.72
2019-01-22T10:15:45.770Z,-0.75
2019-01-22T10:16:55.695Z,-0.65
2019-01-22T10:18:05.369Z,-0.61
2019-01-22T10:19:15.308Z,-0.64
2019-01-22T10:20:24.735Z,-0.82
2019-01-22T10:21:34.166Z,-0.72
2019-01-22T10:22:43.845Z,-0.65
2019-01-22T10:23:52.778Z,-0.54
2019-01-22T10:25:02.449Z,-0.54
2019-01-22T10:26:12.122Z,-0.54
2019-01-22T10:27:21.793Z,-0.65
2019-01-22T10:28:30.720Z,-0.62
2019-01-22T10:29:40.403Z,-0.57
2019-01-22T10:30:50.329Z,-0.6
2019-01-22T10:31:59.998Z,-0.54
2019-01-22T10:33:09.931Z,-0.4
2019-01-22T10:34:19.611Z,-0.49
2019-01-22T10:35:29.283Z,-0.62
2019-01-22T10:36:38.959Z,-0.51
2019-01-22T10:37:48.629Z,-0.51
2019-01-22T10:38:58.046Z,-0.46
2019-01-22T10:40:10.348Z,-0.51
2019-01-22T10:41:19.768Z,-0.47
2019-01-22T10:42:29.196Z,-0.43
2019-01-22T10:43:39.125Z,-0.36
2019-01-22T10:44:48.801Z,-0.34
2019-01-22T10:45:58.721Z,-0.23
2019-01-22T10:47:07.907Z,-0.28
2019-01-22T10:48:17.587Z,-0.25
2019-01-22T10:49:27.256Z,-0.28
2019-01-22T10:50:40.661Z,-0.19
2019-01-22T10:51:50.332Z,-0.29
2019-01-22T10:52:59.752Z,-0.25
2019-01-22T10:54:09.176Z,-0.31
2019-01-22T10:55:18.598Z,-0.26
2019-01-22T10:56:28.526Z,-0.23
2019-01-22T10:57:38.191Z,-0.15
2019-01-22T10:58:47.866Z,-0.18
2019-01-22T10:59:57.541Z,-0.16
2019-01-22T11:01:07.471Z,-0.18
2019-01-22T11:02:17.151Z,-0.07
2019-01-22T11:03:26.586Z,0.07
2019-01-22T11:04:36.255Z,-0.08
2019-01-22T11:05:45.708Z,-0.01
2019-01-22T11:06:55.629Z,0
2019-01-22T11:08:05.300Z,0
2019-01-22T11:09:14.969Z,-0.01
2019-01-22T11:10:24.640Z,0
2019-01-22T11:11:34.320Z,-0.03
2019-01-22T11:12:43.988Z,0.02
2019-01-22T11:13:53.906Z,0.08
2019-01-22T11:15:03.594Z,0.07
2019-01-22T11:16:12.759Z,0.11
2019-01-22T11:17:22.582Z,0.08
2019-01-22T11:18:32.015Z,0.14
2019-01-22T11:19:41.945Z,0.13
2019-01-22T11:20:51.630Z,0.17
2019-01-22T11:22:00.810Z,0.14
2019-01-22T11:23:10.729Z,0.17
2019-01-22T11:24:20.656Z,0.18
2019-01-22T11:25:35.571Z,0.17
2019-01-22T11:26:51.353Z,0.21
2019-01-22T11:28:00.779Z,0.23
2019-01-22T11:29:10.705Z,0.21
2019-01-22T11:30:20.623Z,0.32
2019-01-22T11:31:30.293Z,0.35
2019-01-22T11:32:39.964Z,0.29
2019-01-22T11:33:49.629Z,0.32
2019-01-22T11:34:59.554Z,0.26
2019-01-22T11:36:09.236Z,0.26
2019-01-22T11:37:18.908Z,0.33
2019-01-22T11:38:28.575Z,0.26
2019-01-22T11:39:37.515Z,0.28
2019-01-22T11:40:46.689Z,0.28
2019-01-22T11:41:56.615Z,0.39
2019-01-22T11:43:06.537Z,0.42
2019-01-22T11:44:16.465Z,0.53
2019-01-22T11:45:26.384Z,0.6
2019-01-22T11:46:35.810Z,0.6
2019-01-22T11:47:45.248Z,0.65
2019-01-22T11:48:54.923Z,0.65
2019-01-22T11:50:04.724Z,0.72
2019-01-22T11:51:14.654Z,0.69
2019-01-22T11:52:23.837Z,0.75
2019-01-22T11:53:33.270Z,0.65
2019-01-22T11:54:42.204Z,0.73
2019-01-22T11:55:55.529Z,0.83
2019-01-22T11:57:04.970Z,0.8
2019-01-22T11:58:14.657Z,0.84
2019-01-22T11:59:24.090Z,0.78
2019-01-22T12:00:33.531Z,0.88
2019-01-22T12:01:42.974Z,0.91
2019-01-22T12:02:52.911Z,0.93
2019-01-22T12:04:02.387Z,0.91
2019-01-22T12:05:11.624Z,0.93
2019-01-22T12:06:20.844Z,0.9
2019-01-22T12:07:30.279Z,1.04
2019-01-22T12:08:39.964Z,1
2019-01-22T12:09:49.137Z,1.09
2019-01-22T12:10:58.576Z,1.11
2019-01-22T12:12:08.520Z,1.05
2019-01-22T12:13:17.456Z,1.15
2019-01-22T12:14:26.886Z,1.2
2019-01-22T12:15:36.576Z,1.16
2019-01-22T12:16:46.013Z,1.16
2019-01-22T12:17:55.443Z,1.12
2019-01-22T12:19:05.120Z,1.16
2019-01-22T12:20:14.792Z,1.11
2019-01-22T12:21:24.473Z,1.24
2019-01-22T12:22:34.158Z,1.26
2019-01-22T12:23:44.098Z,1.29
2019-01-22T12:24:53.530Z,1.22
2019-01-22T12:26:03.209Z,1.29
2019-01-22T12:27:12.382Z,1.32
2019-01-22T12:28:22.051Z,1.33
2019-01-22T12:29:31.719Z,1.37
2019-01-22T12:30:41.399Z,1.48
2019-01-22T12:31:51.077Z,1.41
2019-01-22T12:33:00.995Z,1.47
2019-01-22T12:34:10.171Z,1.45
2019-01-22T12:35:18.849Z,1.45
2019-01-22T12:36:28.526Z,1.45
2019-01-22T12:37:38.455Z,1.41
2019-01-22T12:38:48.128Z,1.44
2019-01-22T12:39:58.059Z,1.47
2019-01-22T12:41:07.493Z,1.52
2019-01-22T12:42:17.426Z,1.51
2019-01-22T12:43:26.349Z,1.55
2019-01-22T12:44:36.032Z,1.6
2019-01-22T12:45:45.460Z,1.52
2019-01-22T12:46:55.180Z,1.5
2019-01-22T12:48:05.103Z,1.54
2019-01-22T12:49:14.532Z,1.58
2019-01-22T12:50:30.286Z,1.58
2019-01-22T12:51:40.222Z,1.54
2019-01-22T12:52:49.907Z,1.59
2019-01-22T12:53:59.835Z,1.76
2019-01-22T12:55:09.268Z,1.79
2019-01-22T12:56:18.947Z,1.76
2019-01-22T12:57:28.371Z,1.73
2019-01-22T12:58:37.542Z,1.73
2019-01-22T12:59:47.216Z,1.62
2019-01-22T13:00:56.643Z,1.65
2019-01-22T13:02:06.119Z,1.79
2019-01-22T13:03:15.545Z,1.76
2019-01-22T13:04:24.720Z,1.77
2019-01-22T13:05:34.394Z,1.83
2019-01-22T13:06:44.325Z,1.73
2019-01-22T13:07:54.014Z,1.79
2019-01-22T13:09:03.940Z,1.76
2019-01-22T13:10:13.883Z,1.8
2019-01-22T13:11:23.323Z,1.79
2019-01-22T13:12:32.994Z,1.76
2019-01-22T13:13:42.425Z,1.76
2019-01-22T13:14:52.101Z,1.77
2019-01-22T13:16:01.784Z,1.72
2019-01-22T13:17:11.223Z,1.79
2019-01-22T13:18:20.654Z,1.86
2019-01-22T13:19:30.864Z,1.76
2019-01-22T13:20:40.551Z,1.7
2019-01-22T13:21:49.986Z,1.66
2019-01-22T13:22:59.665Z,1.66
2019-01-22T13:24:09.343Z,1.62
2019-01-22T13:25:19.265Z,1.62
2019-01-22T13:26:29.193Z,1.77
2019-01-22T13:27:38.618Z,1.68
2019-01-22T13:28:48.047Z,1.66
2019-01-22T13:30:03.660Z,1.66
2019-01-22T13:31:13.086Z,1.65
2019-01-22T13:32:23.012Z,1.63
2019-01-22T13:33:32.932Z,1.68
2019-01-22T13:34:42.352Z,1.7
2019-01-22T13:35:52.277Z,1.81
2019-01-22T13:37:02.221Z,1.63
2019-01-22T13:38:12.145Z,1.54
2019-01-22T13:39:22.079Z,1.55
2019-01-22T13:40:32.001Z,1.58
2019-01-22T13:41:41.926Z,1.5
2019-01-22T13:42:51.601Z,1.47
2019-01-22T13:44:01.527Z,1.48
2019-01-22T13:45:10.718Z,1.55
2019-01-22T13:46:20.652Z,1.58
2019-01-22T13:47:30.325Z,1.62
2019-01-22T13:48:40.962Z,1.55
2019-01-22T13:49:50.398Z,1.48
2019-01-22T13:51:00.325Z,1.5
2019-01-22T13:52:09.755Z,1.45
2019-01-22T13:53:19.183Z,1.48
2019-01-22T13:54:28.625Z,1.48
2019-01-22T13:55:38.303Z,1.5
2019-01-22T13:56:47.726Z,1.58
2019-01-22T13:57:57.399Z,1.52
2019-01-22T13:59:07.374Z,1.51
2019-01-22T14:00:17.052Z,1.44
2019-01-22T14:01:26.731Z,1.52
2019-01-22T14:02:36.161Z,1.52
2019-01-22T14:03:45.588Z,1.5
2019-01-22T14:04:55.307Z,1.52
2019-01-22T14:06:05.249Z,1.52
2019-01-22T14:07:14.928Z,1.4
2019-01-22T14:08:24.855Z,1.45
2019-01-22T14:09:34.779Z,1.48
2019-01-22T14:10:43.963Z,1.48
2019-01-22T14:11:53.406Z,1.55
2019-01-22T14:13:02.333Z,1.5
2019-01-22T14:14:12.028Z,1.47
2019-01-22T14:15:21.956Z,1.51
2019-01-22T14:16:31.641Z,1.45
2019-01-22T14:17:40.820Z,1.5
2019-01-22T14:18:50.516Z,1.59
2019-01-22T14:20:00.441Z,1.52
2019-01-22T14:21:10.364Z,1.5
2019-01-22T14:22:23.647Z,1.58
2019-01-22T14:23:33.388Z,1.52
2019-01-22T14:24:42.811Z,1.47
2019-01-22T14:25:51.990Z,1.42
2019-01-22T14:27:01.919Z,1.58
2019-01-22T14:28:11.152Z,1.51
2019-01-22T14:29:20.583Z,1.66
2019-01-22T14:30:30.399Z,1.7
2019-01-22T14:31:39.574Z,1.65
2019-01-22T14:32:49.247Z,1.62
2019-01-22T14:33:59.173Z,1.68
2019-01-22T14:35:09.310Z,1.59
2019-01-22T14:36:18.490Z,1.62
2019-01-22T14:37:27.671Z,1.58
2019-01-22T14:38:37.593Z,1.63
2019-01-22T14:39:47.523Z,1.58
2019-01-22T14:40:57.445Z,1.5
2019-01-22T14:42:07.133Z,1.6
2019-01-22T14:43:16.806Z,1.6
2019-01-22T14:44:26.494Z,1.63
2019-01-22T14:45:35.922Z,1.65
2019-01-22T14:46:45.607Z,1.6
2019-01-22T14:47:54.783Z,1.59
2019-01-22T14:49:04.460Z,1.5
2019-01-22T14:50:14.130Z,1.47
2019-01-22T14:51:23.811Z,1.41
2019-01-22T14:52:32.985Z,1.47
2019-01-22T14:53:42.669Z,1.48
2019-01-22T14:54:52.600Z,1.44
2019-01-22T14:56:02.523Z,1.5
2019-01-22T14:57:12.613Z,1.44
2019-01-22T14:58:29.052Z,1.45
2019-01-22T14:59:38.474Z,1.37
2019-01-22T15:00:48.407Z,1.24
2019-01-22T15:01:58.341Z,1.27
2019-01-22T15:03:07.531Z,1.23
2019-01-22T15:04:17.456Z,1.24
2019-01-22T15:05:27.133Z,1.27
2019-01-22T15:06:36.562Z,1.23
2019-01-22T15:07:46.269Z,1.27
2019-01-22T15:08:55.999Z,1.27
2019-01-22T15:10:05.177Z,1.23
2019-01-22T15:11:14.345Z,1.23
2019-01-22T15:12:23.770Z,1.26
2019-01-22T15:13:33.704Z,1.22
2019-01-22T15:14:43.627Z,1.18
2019-01-22T15:15:53.054Z,1.14
2019-01-22T15:17:02.478Z,1.12
2019-01-22T15:18:12.156Z,1.16
2019-01-22T15:19:21.581Z,1.14
2019-01-22T15:20:31.247Z,1.15